RA1224G UUBM-UUML

Flight info

Callsign RA1224G
Flight time N/A
Altitude 5000
Route DCT
Aircraft SR22/L-VGDW/C

Departure

Time N/A
Airport UUBM

Arrival

Time 2026-04-25 14:40
Airport Severka Airfield (UUML)
Time Latitude Longitude Altitude Speed Heading
2026-04-25 14:20 55.56195 37.98096 427 ft 0 kts 159°
2026-04-25 14:22 55.56180 37.98124 334 ft 11 kts 97°
2026-04-25 14:22 55.56191 37.98179 428 ft 14 kts 70°
2026-04-25 14:23 55.56202 37.98264 425 ft 17 kts 79°
2026-04-25 14:23 55.56159 37.98374 428 ft 14 kts 186°
2026-04-25 14:23 55.56148 37.98372 423 ft 0 kts 186°
2026-04-25 14:23 55.56100 37.98381 433 ft 11 kts 171°
2026-04-25 14:24 55.55987 37.97938 431 ft 75 kts 251°
2026-04-25 14:24 55.55684 37.97101 693 ft 89 kts 188°
2026-04-25 14:24 55.55291 37.97952 964 ft 114 kts 79°
2026-04-25 14:24 55.55430 37.99403 1265 ft 128 kts 99°
2026-04-25 14:25 55.55025 38.00827 1575 ft 135 kts 126°
2026-04-25 14:25 55.54533 38.02248 1925 ft 137 kts 124°
2026-04-25 14:25 55.54012 38.03715 2289 ft 144 kts 124°
2026-04-25 14:25 55.53836 38.04207 2403 ft 144 kts 124°
2026-04-25 14:26 55.52906 38.06740 2988 ft 148 kts 125°
2026-04-25 14:26 55.52361 38.08249 3321 ft 147 kts 124°
2026-04-25 14:26 55.51802 38.09770 3666 ft 149 kts 126°
2026-04-25 14:26 55.51238 38.11298 4008 ft 149 kts 125°
2026-04-25 14:27 55.50675 38.12833 4350 ft 150 kts 126°
2026-04-25 14:27 55.50106 38.14378 4687 ft 150 kts 125°
2026-04-25 14:27 55.49530 38.15922 4991 ft 153 kts 126°
2026-04-25 14:27 55.48906 38.17589 5016 ft 171 kts 126°
2026-04-25 14:28 55.48233 38.19404 5019 ft 182 kts 126°
2026-04-25 14:28 55.47535 38.21296 5017 ft 185 kts 126°
2026-04-25 14:28 55.46835 38.23170 5021 ft 181 kts 126°
2026-04-25 14:28 55.46153 38.25016 5025 ft 179 kts 126°
2026-04-25 14:29 55.45474 38.26858 5011 ft 179 kts 125°
2026-04-25 14:29 55.44796 38.28694 5006 ft 179 kts 126°
2026-04-25 14:29 55.44116 38.30526 5002 ft 178 kts 125°
2026-04-25 14:29 55.43453 38.32312 5004 ft 175 kts 126°
2026-04-25 14:30 55.42781 38.34105 5002 ft 175 kts 126°
2026-04-25 14:30 55.41453 38.37689 4995 ft 173 kts 126°
2026-04-25 14:30 55.40794 38.39459 4995 ft 171 kts 126°
2026-04-25 14:31 55.40138 38.41214 5009 ft 171 kts 126°
2026-04-25 14:31 55.39489 38.42960 5001 ft 170 kts 126°
2026-04-25 14:31 55.38840 38.44700 4999 ft 170 kts 126°
2026-04-25 14:31 55.38191 38.46429 5002 ft 170 kts 126°
2026-04-25 14:32 55.37532 38.48181 5000 ft 172 kts 126°
2026-04-25 14:32 55.36888 38.49916 4999 ft 172 kts 126°
2026-04-25 14:32 55.36232 38.51671 5001 ft 172 kts 126°
2026-04-25 14:32 55.35575 38.53419 4993 ft 170 kts 126°
2026-04-25 14:33 55.34921 38.55153 4814 ft 171 kts 126°
2026-04-25 14:33 55.34262 38.56893 4588 ft 169 kts 126°
2026-04-25 14:33 55.33619 38.58593 4384 ft 165 kts 126°
2026-04-25 14:33 55.33010 38.60220 4215 ft 154 kts 126°
2026-04-25 14:34 55.32435 38.61766 4063 ft 149 kts 126°
2026-04-25 14:34 55.31870 38.63273 3893 ft 148 kts 126°
2026-04-25 14:34 55.31297 38.64796 3689 ft 152 kts 126°
2026-04-25 14:34 55.30706 38.66375 3427 ft 157 kts 125°
2026-04-25 14:35 55.30316 38.67444 3287 ft 155 kts 125°
2026-04-25 14:35 55.29497 38.69432 3094 ft 147 kts 147°
2026-04-25 14:35 55.28846 38.70822 2873 ft 147 kts 141°
2026-04-25 14:35 55.28267 38.72302 2674 ft 148 kts 119°
2026-04-25 14:36 55.27840 38.73814 2554 ft 133 kts 120°
2026-04-25 14:36 55.27373 38.75210 2413 ft 132 kts 127°
2026-04-25 14:36 55.26841 38.76539 2247 ft 133 kts 129°
2026-04-25 14:36 55.26187 38.77606 2046 ft 124 kts 159°
2026-04-25 14:37 55.25450 38.78061 1880 ft 106 kts 179°
2026-04-25 14:37 55.24792 38.77754 1732 ft 100 kts 213°
2026-04-25 14:37 55.24358 38.76882 1550 ft 94 kts 249°
2026-04-25 14:37 55.23868 38.76069 1632 ft 109 kts 219°
2026-04-25 14:38 55.23317 38.75157 1660 ft 104 kts 234°
2026-04-25 14:38 55.22867 38.74175 1545 ft 103 kts 235°
2026-04-25 14:38 55.22488 38.73152 1461 ft 100 kts 244°
2026-04-25 14:38 55.22176 38.72081 1334 ft 96 kts 242°
2026-04-25 14:39 55.21817 38.71117 1131 ft 88 kts 236°
2026-04-25 14:39 55.21497 38.70245 900 ft 85 kts 240°
2026-04-25 14:39 55.21194 38.69400 667 ft 80 kts 236°
2026-04-25 14:39 55.20906 38.68609 482 ft 73 kts 242°
2026-04-25 14:40 55.20731 38.68126 427 ft 65 kts 239°
2026-04-25 14:40 55.20532 38.67570 429 ft 8 kts 244°
2026-04-25 14:40 55.20592 38.67523 424 ft 13 kts 346°
2026-04-25 14:40 55.20592 38.67498 427 ft 1 kts 112°
2026-04-25 14:41 55.20591 38.67500 423 ft 0 kts 112°
2026-04-25 14:43 55.20591 38.67502 423 ft 1 kts 113°
2026-04-25 14:43 55.20573 38.67530 423 ft 7 kts 174°
2026-04-25 14:43 55.20550 38.67621 424 ft 32 kts 57°
2026-04-25 14:44 55.20809 38.68303 490 ft 86 kts 46°
2026-04-25 14:44 55.21268 38.68267 784 ft 77 kts 281°
2026-04-25 14:44 55.20932 38.67561 1042 ft 87 kts 223°
2026-04-25 14:44 55.20904 38.66554 1343 ft 101 kts 313°
2026-04-25 14:45 55.21558 38.65948 1688 ft 109 kts 313°
2026-04-25 14:45 55.22049 38.64922 2081 ft 114 kts 309°
2026-04-25 14:45 55.22601 38.63904 2452 ft 117 kts 309°
2026-04-25 14:45 55.23167 38.62821 2824 ft 125 kts 310°
2026-04-25 14:46 55.23751 38.61701 3165 ft 124 kts 308°
2026-04-25 14:46 55.24332 38.60557 3518 ft 127 kts 308°
2026-04-25 14:46 55.24935 38.59387 3866 ft 130 kts 308°
2026-04-25 14:46 55.25551 38.58199 4225 ft 133 kts 308°
2026-04-25 14:47 55.26169 38.56996 4563 ft 132 kts 307°
2026-04-25 14:47 55.26368 38.56609 4675 ft 132 kts 307°
2026-04-25 14:47 55.27425 38.54559 5016 ft 148 kts 307°
2026-04-25 14:47 55.28145 38.53163 5019 ft 159 kts 308°
2026-04-25 14:48 55.28891 38.51740 5019 ft 158 kts 308°
2026-04-25 14:48 55.29627 38.50315 5023 ft 158 kts 308°
2026-04-25 14:48 55.30123 38.49347 5015 ft 158 kts 308°
2026-04-25 14:48 55.31093 38.47457 5017 ft 157 kts 308°
2026-04-25 14:49 55.31586 38.46494 5016 ft 157 kts 308°
2026-04-25 14:49 55.32309 38.45092 5013 ft 157 kts 308°
2026-04-25 14:49 55.33043 38.43656 5014 ft 158 kts 308°
2026-04-25 14:49 55.33777 38.42220 5013 ft 158 kts 308°
2026-04-25 14:50 55.34516 38.40786 5013 ft 158 kts 308°
2026-04-25 14:50 55.35250 38.39347 5011 ft 158 kts 308°
2026-04-25 14:50 55.35985 38.37912 5012 ft 158 kts 308°
2026-04-25 14:50 55.36721 38.36475 5020 ft 158 kts 308°
2026-04-25 14:51 55.37452 38.35044 5017 ft 158 kts 308°
2026-04-25 14:51 55.38191 38.33599 5017 ft 159 kts 308°
2026-04-25 14:51 55.38929 38.32155 5015 ft 158 kts 308°
2026-04-25 14:51 55.39667 38.30708 5011 ft 159 kts 308°
2026-04-25 14:52 55.40404 38.29266 5010 ft 159 kts 308°
2026-04-25 14:52 55.41145 38.27817 5013 ft 159 kts 308°
2026-04-25 14:52 55.41886 38.26359 5012 ft 160 kts 308°
2026-04-25 14:52 55.42378 38.25397 5012 ft 159 kts 308°
2026-04-25 14:53 55.43365 38.23451 5016 ft 160 kts 308°
2026-04-25 14:53 55.44106 38.21998 5009 ft 159 kts 308°
2026-04-25 14:53 55.44847 38.20540 5011 ft 160 kts 308°
2026-04-25 14:53 55.45588 38.19084 5010 ft 159 kts 308°
2026-04-25 14:54 55.46325 38.17627 5010 ft 159 kts 308°
2026-04-25 14:54 55.47054 38.16191 5009 ft 159 kts 308°
2026-04-25 14:54 55.47803 38.14714 4875 ft 167 kts 308°
2026-04-25 14:54 55.48576 38.13226 4618 ft 156 kts 310°
2026-04-25 14:55 55.49051 38.12318 4422 ft 148 kts 309°
2026-04-25 14:55 55.49957 38.10513 3882 ft 146 kts 308°
2026-04-25 14:55 55.50630 38.09174 3479 ft 145 kts 308°
2026-04-25 14:55 55.51294 38.07857 3082 ft 143 kts 309°
2026-04-25 14:56 55.51953 38.06550 2693 ft 142 kts 308°
2026-04-25 14:56 55.52605 38.05252 2300 ft 141 kts 308°
2026-04-25 14:56 55.53258 38.03960 1915 ft 142 kts 309°
2026-04-25 14:56 55.53910 38.02661 1554 ft 144 kts 308°
2026-04-25 14:57 55.54527 38.01322 1283 ft 138 kts 304°
2026-04-25 14:57 55.55152 38.00173 1178 ft 126 kts 323°
2026-04-25 14:57 55.55923 37.99451 985 ft 119 kts 330°
2026-04-25 14:57 55.56618 37.98869 960 ft 104 kts 346°
2026-04-25 14:58 55.57137 37.99417 913 ft 93 kts 78°
2026-04-25 14:58 55.56856 38.00208 816 ft 79 kts 173°
2026-04-25 14:58 55.56413 37.99873 614 ft 73 kts 230°
2026-04-25 14:58 55.56216 37.99068 432 ft 66 kts 250°
2026-04-25 14:59 55.56102 37.98508 430 ft 23 kts 252°
2026-04-25 14:59 55.56153 37.98370 421 ft 19 kts 358°
2026-04-25 14:59 55.56247 37.98318 428 ft 15 kts 315°
2026-04-25 14:59 55.56246 37.98142 425 ft 13 kts 248°
2026-04-25 15:00 55.56205 37.98090 428 ft 0 kts 159°